Terminal Aerodrome Forecast
Issued by NWS

Home | Current Version | Previous Version | Text Only | Print | Product List | Glossary On
Versions: 1 2 3 4 5 6 7 8 9 10 11 12 13 14 15 16 17 18 19 20
000
FTUS43 KLSX 272320
TAFCPS
TAF
KCPS 272320Z 2800/2824 VRB05KT P6SM VCTS SCT030CB BKN080
      TEMPO 2800/2803 2SM TSRA BKN025CB
     FM280400 VRB04KT P6SM SCT250
     FM280900 VRB03KT 4SM BR SCT250
     FM281500 16005KT P6SM SCT035
     FM282000 20005KT P6SM VCTS SCT035CB=

USA.gov is the U.S. government's official web portal to all federal, state and local government web resources and services.